West Irvine, Kentucky
Current Conditions -  °F | °C
As of 5:15 AM on Saturday 22 Nov 2014 (Local Time) from KI39 Reporting Station
Broken Clouds Broken Clouds  
Wind Chill: 35°   Ceiling: 12000
Heat Index: 41°   Visibility: 10mi
Dew Point: 18°   Wind: 9mph
Humidity: 39%   Direction: 200°SSW
Pressure: 30.33"   Gusts: NA
Location:  37.6427°N, 83.9998°W
Report Text: KI39 221015Z AUTO 20008KT 10SM SCT090 BKN120 05/M08 A3033 RMK AO2
Loading
Personal Weather Stations






























Interactive Weather Map New forecast layout! Learn more

10-Day Weather Forecast

Advertisements
Track Severe Weather on mobile